sensor_id;sensor_type;location;lat;lon;timestamp;P1;durP1;ratioP1;P2;durP2;ratioP2
1416;SDS011;703;51.162;13.574;2024-01-16T00:02:19;424.27;;;117.17;;
1416;SDS011;703;51.162;13.574;2024-01-16T00:04:44;442.40;;;123.33;;
1416;SDS011;703;51.162;13.574;2024-01-16T00:07:10;434.27;;;114.53;;
1416;SDS011;703;51.162;13.574;2024-01-16T00:09:35;441.30;;;120.27;;
1416;SDS011;703;51.162;13.574;2024-01-16T00:12:04;440.10;;;119.63;;
1416;SDS011;703;51.162;13.574;2024-01-16T00:14:30;438.88;;;122.05;;
1416;SDS011;703;51.162;13.574;2024-01-16T00:16:55;438.00;;;118.57;;
1416;SDS011;703;51.162;13.574;2024-01-16T00:19:21;454.33;;;125.70;;
1416;SDS011;703;51.162;13.574;2024-01-16T00:21:46;447.17;;;120.37;;
1416;SDS011;703;51.162;13.574;2024-01-16T00:24:12;445.50;;;120.03;;
1416;SDS011;703;51.162;13.574;2024-01-16T00:26:38;452.45;;;121.80;;
1416;SDS011;703;51.162;13.574;2024-01-16T00:29:03;447.83;;;118.80;;
1416;SDS011;703;51.162;13.574;2024-01-16T00:31:29;446.87;;;119.67;;
1416;SDS011;703;51.162;13.574;2024-01-16T00:33:54;448.40;;;116.63;;
1416;SDS011;703;51.162;13.574;2024-01-16T00:36:20;443.07;;;115.20;;
1416;SDS011;703;51.162;13.574;2024-01-16T00:38:45;444.57;;;121.13;;
1416;SDS011;703;51.162;13.574;2024-01-16T00:41:12;437.37;;;116.07;;
1416;SDS011;703;51.162;13.574;2024-01-16T00:43:39;384.27;;;111.40;;
1416;SDS011;703;51.162;13.574;2024-01-16T00:46:05;380.83;;;111.90;;
1416;SDS011;703;51.162;13.574;2024-01-16T00:48:31;387.83;;;112.27;;
1416;SDS011;703;51.162;13.574;2024-01-16T00:50:56;376.33;;;113.80;;
1416;SDS011;703;51.162;13.574;2024-01-16T00:53:21;369.33;;;113.47;;
1416;SDS011;703;51.162;13.574;2024-01-16T00:55:47;356.47;;;109.80;;
1416;SDS011;703;51.162;13.574;2024-01-16T00:58:12;305.43;;;107.37;;
1416;SDS011;703;51.162;13.574;2024-01-16T01:00:38;259.70;;;105.20;;
1416;SDS011;703;51.162;13.574;2024-01-16T01:03:04;319.90;;;111.77;;
1416;SDS011;703;51.162;13.574;2024-01-16T01:05:30;351.60;;;108.87;;
1416;SDS011;703;51.162;13.574;2024-01-16T01:07:55;406.60;;;115.53;;
1416;SDS011;703;51.162;13.574;2024-01-16T01:10:21;391.73;;;113.27;;
1416;SDS011;703;51.162;13.574;2024-01-16T01:12:47;347.17;;;112.57;;
1416;SDS011;703;51.162;13.574;2024-01-16T01:15:13;416.87;;;123.73;;
1416;SDS011;703;51.162;13.574;2024-01-16T01:17:41;449.98;;;123.72;;
1416;SDS011;703;51.162;13.574;2024-01-16T01:20:07;462.13;;;194.97;;
1416;SDS011;703;51.162;13.574;2024-01-16T01:22:33;511.70;;;289.77;;
1416;SDS011;703;51.162;13.574;2024-01-16T01:24:59;509.83;;;286.70;;
1416;SDS011;703;51.162;13.574;2024-01-16T01:27:24;486.53;;;211.30;;
1416;SDS011;703;51.162;13.574;2024-01-16T01:29:49;441.60;;;167.97;;
1416;SDS011;703;51.162;13.574;2024-01-16T01:32:15;415.23;;;132.93;;
1416;SDS011;703;51.162;13.574;2024-01-16T01:34:43;445.43;;;125.37;;
1416;SDS011;703;51.162;13.574;2024-01-16T01:37:09;438.63;;;121.93;;
1416;SDS011;703;51.162;13.574;2024-01-16T01:39:34;448.33;;;135.17;;
1416;SDS011;703;51.162;13.574;2024-01-16T01:42:00;438.17;;;124.90;;
1416;SDS011;703;51.162;13.574;2024-01-16T01:44:25;436.07;;;124.20;;
1416;SDS011;703;51.162;13.574;2024-01-16T01:46:51;439.60;;;124.73;;
1416;SDS011;703;51.162;13.574;2024-01-16T01:49:19;444.05;;;125.47;;
1416;SDS011;703;51.162;13.574;2024-01-16T01:51:45;441.50;;;124.27;;
1416;SDS011;703;51.162;13.574;2024-01-16T01:54:11;442.70;;;122.57;;
1416;SDS011;703;51.162;13.574;2024-01-16T01:56:37;447.08;;;130.60;;
1416;SDS011;703;51.162;13.574;2024-01-16T01:59:04;438.02;;;124.68;;
1416;SDS011;703;51.162;13.574;2024-01-16T02:01:30;439.10;;;119.20;;
1416;SDS011;703;51.162;13.574;2024-01-16T02:03:56;442.98;;;128.27;;
1416;SDS011;703;51.162;13.574;2024-01-16T02:06:24;436.00;;;118.72;;
1416;SDS011;703;51.162;13.574;2024-01-16T02:08:49;441.13;;;120.27;;
1416;SDS011;703;51.162;13.574;2024-01-16T02:11:16;446.60;;;118.57;;
1416;SDS011;703;51.162;13.574;2024-01-16T02:13:41;473.50;;;177.60;;
1416;SDS011;703;51.162;13.574;2024-01-16T02:16:17;453.53;;;163.13;;
1416;SDS011;703;51.162;13.574;2024-01-16T02:18:43;434.30;;;117.53;;
1416;SDS011;703;51.162;13.574;2024-01-16T02:21:09;440.70;;;154.60;;
1416;SDS011;703;51.162;13.574;2024-01-16T02:23:35;466.67;;;200.38;;
1416;SDS011;703;51.162;13.574;2024-01-16T02:26:01;469.67;;;188.23;;
1416;SDS011;703;51.162;13.574;2024-01-16T02:28:27;457.75;;;179.02;;
1416;SDS011;703;51.162;13.574;2024-01-16T02:30:53;494.38;;;244.27;;
1416;SDS011;703;51.162;13.574;2024-01-16T02:33:19;457.23;;;121.67;;
1416;SDS011;703;51.162;13.574;2024-01-16T02:35:44;481.07;;;192.87;;
1416;SDS011;703;51.162;13.574;2024-01-16T02:38:10;551.67;;;324.73;;
1416;SDS011;703;51.162;13.574;2024-01-16T02:40:35;491.97;;;237.23;;
1416;SDS011;703;51.162;13.574;2024-01-16T02:43:01;578.63;;;328.80;;
1416;SDS011;703;51.162;13.574;2024-01-16T02:45:26;464.87;;;251.37;;
1416;SDS011;703;51.162;13.574;2024-01-16T02:47:51;428.10;;;175.67;;
1416;SDS011;703;51.162;13.574;2024-01-16T02:50:17;460.60;;;141.13;;
1416;SDS011;703;51.162;13.574;2024-01-16T02:52:42;578.13;;;394.97;;
1416;SDS011;703;51.162;13.574;2024-01-16T02:55:08;643.83;;;523.33;;
1416;SDS011;703;51.162;13.574;2024-01-16T02:57:34;540.70;;;363.13;;
1416;SDS011;703;51.162;13.574;2024-01-16T02:59:59;478.33;;;220.77;;
1416;SDS011;703;51.162;13.574;2024-01-16T03:02:25;555.67;;;392.23;;
1416;SDS011;703;51.162;13.574;2024-01-16T03:04:50;307.10;;;145.43;;
1416;SDS011;703;51.162;13.574;2024-01-16T03:07:16;146.50;;;109.97;;
1416;SDS011;703;51.162;13.574;2024-01-16T03:09:41;160.53;;;104.50;;
1416;SDS011;703;51.162;13.574;2024-01-16T03:12:07;121.87;;;88.40;;
1416;SDS011;703;51.162;13.574;2024-01-16T03:14:32;104.87;;;82.03;;
1416;SDS011;703;51.162;13.574;2024-01-16T03:17:02;135.85;;;82.13;;
1416;SDS011;703;51.162;13.574;2024-01-16T03:19:28;167.38;;;104.63;;
1416;SDS011;703;51.162;13.574;2024-01-16T03:21:53;204.00;;;98.57;;
1416;SDS011;703;51.162;13.574;2024-01-16T03:24:19;144.53;;;108.37;;
1416;SDS011;703;51.162;13.574;2024-01-16T03:26:45;129.13;;;101.43;;
1416;SDS011;703;51.162;13.574;2024-01-16T03:29:10;140.53;;;91.67;;
1416;SDS011;703;51.162;13.574;2024-01-16T03:31:36;109.97;;;93.63;;
1416;SDS011;703;51.162;13.574;2024-01-16T03:34:01;65.57;;;58.43;;
1416;SDS011;703;51.162;13.574;2024-01-16T03:36:27;41.90;;;36.53;;
1416;SDS011;703;51.162;13.574;2024-01-16T03:38:52;60.47;;;50.17;;
1416;SDS011;703;51.162;13.574;2024-01-16T03:41:18;54.47;;;42.60;;
1416;SDS011;703;51.162;13.574;2024-01-16T03:43:43;59.93;;;46.53;;
1416;SDS011;703;51.162;13.574;2024-01-16T03:46:10;51.13;;;43.90;;
1416;SDS011;703;51.162;13.574;2024-01-16T03:48:36;49.15;;;42.88;;
1416;SDS011;703;51.162;13.574;2024-01-16T03:51:02;18.70;;;17.20;;
1416;SDS011;703;51.162;13.574;2024-01-16T03:53:27;10.05;;;9.50;;
1416;SDS011;703;51.162;13.574;2024-01-16T03:55:53;7.37;;;6.87;;
1416;SDS011;703;51.162;13.574;2024-01-16T03:58:18;6.07;;;5.67;;
1416;SDS011;703;51.162;13.574;2024-01-16T04:00:44;6.00;;;5.73;;
1416;SDS011;703;51.162;13.574;2024-01-16T04:03:09;11.03;;;10.23;;
1416;SDS011;703;51.162;13.574;2024-01-16T04:05:36;7.13;;;6.53;;
1416;SDS011;703;51.162;13.574;2024-01-16T04:08:01;7.30;;;6.90;;
1416;SDS011;703;51.162;13.574;2024-01-16T04:10:27;6.50;;;6.30;;
1416;SDS011;703;51.162;13.574;2024-01-16T04:12:52;7.82;;;7.38;;
1416;SDS011;703;51.162;13.574;2024-01-16T04:15:18;4.63;;;4.43;;
1416;SDS011;703;51.162;13.574;2024-01-16T04:17:43;5.03;;;4.63;;
1416;SDS011;703;51.162;13.574;2024-01-16T04:20:09;5.67;;;5.37;;
1416;SDS011;703;51.162;13.574;2024-01-16T04:25:01;31.70;;;30.13;;
1416;SDS011;703;51.162;13.574;2024-01-16T04:27:29;8.43;;;7.88;;
1416;SDS011;703;51.162;13.574;2024-01-16T04:29:55;6.80;;;6.37;;
1416;SDS011;703;51.162;13.574;2024-01-16T04:32:21;7.50;;;6.90;;
1416;SDS011;703;51.162;13.574;2024-01-16T04:34:46;5.80;;;5.40;;
1416;SDS011;703;51.162;13.574;2024-01-16T04:49:19;22.63;;;20.07;;
1416;SDS011;703;51.162;13.574;2024-01-16T04:51:45;244.43;;;139.70;;
1416;SDS011;703;51.162;13.574;2024-01-16T04:54:11;104.22;;;61.20;;
1416;SDS011;703;51.162;13.574;2024-01-16T04:56:37;49.42;;;39.33;;
1416;SDS011;703;51.162;13.574;2024-01-16T04:59:02;37.30;;;32.13;;
1416;SDS011;703;51.162;13.574;2024-01-16T05:01:28;43.80;;;37.73;;
1416;SDS011;703;51.162;13.574;2024-01-16T05:03:53;46.83;;;40.30;;
1416;SDS011;703;51.162;13.574;2024-01-16T05:06:19;50.38;;;39.00;;
1416;SDS011;703;51.162;13.574;2024-01-16T05:08:45;51.00;;;39.83;;
1416;SDS011;703;51.162;13.574;2024-01-16T05:11:10;38.27;;;34.20;;
1416;SDS011;703;51.162;13.574;2024-01-16T05:13:36;49.37;;;40.90;;
1416;SDS011;703;51.162;13.574;2024-01-16T05:16:01;37.70;;;32.20;;
1416;SDS011;703;51.162;13.574;2024-01-16T05:18:27;37.17;;;30.23;;
1416;SDS011;703;51.162;13.574;2024-01-16T05:20:52;38.57;;;32.27;;
1416;SDS011;703;51.162;13.574;2024-01-16T05:23:19;32.40;;;28.73;;
1416;SDS011;703;51.162;13.574;2024-01-16T05:25:44;38.47;;;32.27;;
1416;SDS011;703;51.162;13.574;2024-01-16T05:28:09;9.10;;;8.20;;
1416;SDS011;703;51.162;13.574;2024-01-16T05:30:35;40.10;;;38.10;;
1416;SDS011;703;51.162;13.574;2024-01-16T05:33:01;14.13;;;13.10;;
1416;SDS011;703;51.162;13.574;2024-01-16T05:35:27;8.77;;;8.20;;
1416;SDS011;703;51.162;13.574;2024-01-16T05:37:53;4.90;;;4.70;;
1416;SDS011;703;51.162;13.574;2024-01-16T05:40:19;5.33;;;5.03;;
1416;SDS011;703;51.162;13.574;2024-01-16T05:42:44;7.13;;;6.73;;
1416;SDS011;703;51.162;13.574;2024-01-16T05:45:11;7.47;;;7.00;;
1416;SDS011;703;51.162;13.574;2024-01-16T05:47:38;7.55;;;7.05;;
1416;SDS011;703;51.162;13.574;2024-01-16T05:50:04;7.37;;;6.93;;
1416;SDS011;703;51.162;13.574;2024-01-16T05:52:30;9.48;;;8.68;;
1416;SDS011;703;51.162;13.574;2024-01-16T05:54:56;8.03;;;7.43;;
1416;SDS011;703;51.162;13.574;2024-01-16T05:57:23;7.47;;;6.97;;
1416;SDS011;703;51.162;13.574;2024-01-16T05:59:49;9.00;;;8.30;;
1416;SDS011;703;51.162;13.574;2024-01-16T06:04:40;9.43;;;8.20;;
1416;SDS011;703;51.162;13.574;2024-01-16T07:03:06;328.80;;;316.02;;
1416;SDS011;703;51.162;13.574;2024-01-16T07:05:32;11.77;;;11.23;;
1416;SDS011;703;51.162;13.574;2024-01-16T19:05:43;5.00;;;4.60;;
1416;SDS011;703;51.162;13.574;2024-01-16T19:08:09;8.90;;;8.50;;
1416;SDS011;703;51.162;13.574;2024-01-16T19:10:35;7.32;;;6.90;;
1416;SDS011;703;51.162;13.574;2024-01-16T19:13:01;6.50;;;6.20;;
1416;SDS011;703;51.162;13.574;2024-01-16T19:15:27;6.27;;;5.93;;
1416;SDS011;703;51.162;13.574;2024-01-16T19:17:52;8.73;;;8.13;;
1416;SDS011;703;51.162;13.574;2024-01-16T19:20:18;10.13;;;9.63;;
1416;SDS011;703;51.162;13.574;2024-01-16T19:25:12;10.27;;;9.63;;
1416;SDS011;703;51.162;13.574;2024-01-16T19:27:41;22.63;;;21.85;;
1416;SDS011;703;51.162;13.574;2024-01-16T19:30:09;15.07;;;14.40;;
1416;SDS011;703;51.162;13.574;2024-01-16T19:32:38;29.65;;;28.65;;
1416;SDS011;703;51.162;13.574;2024-01-16T19:35:08;9.55;;;8.93;;
1416;SDS011;703;51.162;13.574;2024-01-16T19:40:00;6.82;;;6.22;;
1416;SDS011;703;51.162;13.574;2024-01-16T19:59:27;8.70;;;8.00;;
1416;SDS011;703;51.162;13.574;2024-01-16T20:01:53;9.43;;;8.85;;
1416;SDS011;703;51.162;13.574;2024-01-16T20:04:19;7.17;;;6.73;;
1416;SDS011;703;51.162;13.574;2024-01-16T20:06:44;5.87;;;5.37;;
1416;SDS011;703;51.162;13.574;2024-01-16T20:09:10;9.45;;;8.75;;
1416;SDS011;703;51.162;13.574;2024-01-16T20:11:36;10.98;;;10.25;;
1416;SDS011;703;51.162;13.574;2024-01-16T20:14:02;5.93;;;5.53;;
1416;SDS011;703;51.162;13.574;2024-01-16T20:16:28;6.73;;;6.40;;
1416;SDS011;703;51.162;13.574;2024-01-16T20:18:54;73.30;;;69.40;;
1416;SDS011;703;51.162;13.574;2024-01-16T20:21:24;5.43;;;5.05;;
1416;SDS011;703;51.162;13.574;2024-01-16T20:23:50;7.55;;;7.15;;
1416;SDS011;703;51.162;13.574;2024-01-16T20:26:17;4.53;;;4.22;;
1416;SDS011;703;51.162;13.574;2024-01-16T20:28:44;6.57;;;6.20;;
1416;SDS011;703;51.162;13.574;2024-01-16T20:31:10;7.85;;;7.45;;
1416;SDS011;703;51.162;13.574;2024-01-16T20:33:42;8.23;;;7.72;;
1416;SDS011;703;51.162;13.574;2024-01-16T20:36:14;10.02;;;9.50;;
1416;SDS011;703;51.162;13.574;2024-01-16T20:38:44;6.13;;;5.63;;
1416;SDS011;703;51.162;13.574;2024-01-16T20:41:10;7.32;;;6.72;;
1416;SDS011;703;51.162;13.574;2024-01-16T20:43:36;7.05;;;6.40;;
1416;SDS011;703;51.162;13.574;2024-01-16T20:46:02;9.15;;;8.48;;
1416;SDS011;703;51.162;13.574;2024-01-16T20:50:57;5.60;;;5.20;;
1416;SDS011;703;51.162;13.574;2024-01-16T20:55:51;9.07;;;7.55;;
1416;SDS011;703;51.162;13.574;2024-01-16T20:58:17;8.10;;;7.53;;
1416;SDS011;703;51.162;13.574;2024-01-16T21:00:43;5.95;;;5.45;;
1416;SDS011;703;51.162;13.574;2024-01-16T21:03:10;8.45;;;7.93;;
1416;SDS011;703;51.162;13.574;2024-01-16T21:05:36;7.10;;;6.50;;
1416;SDS011;703;51.162;13.574;2024-01-16T21:08:02;8.20;;;7.60;;
1416;SDS011;703;51.162;13.574;2024-01-16T21:10:28;8.27;;;7.78;;
1416;SDS011;703;51.162;13.574;2024-01-16T21:12:54;7.30;;;6.83;;
1416;SDS011;703;51.162;13.574;2024-01-16T21:15:19;8.23;;;7.63;;
1416;SDS011;703;51.162;13.574;2024-01-16T21:17:44;9.83;;;9.00;;
1416;SDS011;703;51.162;13.574;2024-01-16T21:22:37;7.97;;;7.18;;
1416;SDS011;703;51.162;13.574;2024-01-16T21:29:55;4.28;;;3.97;;
1416;SDS011;703;51.162;13.574;2024-01-16T21:32:20;39.75;;;38.00;;
1416;SDS011;703;51.162;13.574;2024-01-16T21:34:46;7.68;;;7.25;;
1416;SDS011;703;51.162;13.574;2024-01-16T21:37:12;7.68;;;7.28;;
1416;SDS011;703;51.162;13.574;2024-01-16T21:39:39;6.25;;;5.82;;
1416;SDS011;703;51.162;13.574;2024-01-16T21:42:05;7.35;;;6.82;;
1416;SDS011;703;51.162;13.574;2024-01-16T21:44:31;14.40;;;13.65;;
1416;SDS011;703;51.162;13.574;2024-01-16T21:54:14;7.80;;;7.00;;
1416;SDS011;703;51.162;13.574;2024-01-16T22:28:20;18.40;;;17.50;;
1416;SDS011;703;51.162;13.574;2024-01-16T22:33:11;7.80;;;6.40;;
